< < Back
Terminal Aerodrome Forecast


Current Version              Previous Versions:   1  2  3  4  5  6  7  8  9  

Terminal Aerodrome Forecast

398
FTUS42 KTAE 210500
TAFVLD
TAF
KVLD 210522Z 2106/2206 00000KT P6SM SKC
     FM211400 05003KT P6SM FEW250
     FM220000 00000KT P6SM SKC=



Latest METAR

230
SAUS70 KWBC 210600 RRP
MTRVLD
METAR KVLD 210553Z AUTO 36003KT 9SM CLR 18/17 A2998 RMK AO2 SLP158
T01830172 10244 20183 58007


USA.gov is the U.S. government's official web portal to all federal, state and local government web resources and services.